Time;durP1;ratioP1;P1;durP2;ratioP2;P2;SDS_P1;SDS_P2;PMS_P1;PMS_P2;Temp;Humidity;BMP_temperature;BMP_pressure;BME280_temperature;BME280_humidity;BME280_pressure;Samples;Min_cycle;Max_cycle;Signal;HPM_P1;HPM_P2
2023/01/16 00:01:30;;;;;;;2.25;0.80;;;;;;;3.21;100.00;98872.75;6166859;28;20054;-88
2023/01/16 00:04:34;;;;;;;3.10;0.93;;;;;;;3.23;100.00;98863.22;6153679;28;20136;-88
2023/01/16 00:07:36;;;;;;;4.78;1.33;;;;;;;3.24;100.00;98857.16;6159552;28;20626;-88
2023/01/16 00:10:38;;;;;;;2.05;0.93;;;;;;;3.33;100.00;98858.19;6159864;28;20118;-88
2023/01/16 00:13:40;;;;;;;2.42;0.93;;;;;;;3.44;100.00;98860.78;6140349;28;20039;-88
2023/01/16 00:16:42;;;;;;;4.40;1.10;;;;;;;3.61;100.00;98849.25;6162140;28;20509;-88
2023/01/16 00:19:44;;;;;;;1.38;0.90;;;;;;;3.73;100.00;98845.75;6161288;28;20081;-88
2023/01/16 00:22:45;;;;;;;1.73;1.13;;;;;;;3.82;100.00;98839.09;6159859;28;20045;-88
2023/01/16 00:25:47;;;;;;;2.25;0.68;;;;;;;3.88;100.00;98834.31;6160108;28;20043;-89
2023/01/16 00:28:49;;;;;;;1.17;0.80;;;;;;;3.86;100.00;98825.94;6158706;28;20531;-88
2023/01/16 00:31:51;;;;;;;2.42;0.73;;;;;;;3.83;100.00;98822.81;6161073;28;20043;-89
2023/01/16 00:34:54;;;;;;;1.90;0.70;;;;;;;3.73;100.00;98822.72;6157840;28;20047;-89
2023/01/16 00:37:56;;;;;;;1.70;0.80;;;;;;;3.56;100.00;98818.91;6158667;28;20042;-88
2023/01/16 00:40:57;;;;;;;0.85;0.57;;;;;;;3.40;100.00;98811.59;6159636;28;20041;-88
2023/01/16 00:43:59;;;;;;;2.30;0.82;;;;;;;3.33;100.00;98797.66;6161412;28;20097;-88
2023/01/16 00:47:01;;;;;;;1.20;0.68;;;;;;;3.25;100.00;98794.88;6161047;28;20079;-88
2023/01/16 00:50:04;;;;;;;1.63;0.88;;;;;;;3.43;100.00;98790.91;6161015;28;20070;-88
2023/01/16 00:53:06;;;;;;;2.47;0.52;;;;;;;3.60;100.00;98783.66;6160135;28;20039;-89
2023/01/16 00:56:08;;;;;;;1.25;0.65;;;;;;;3.49;100.00;98784.50;6141000;28;20054;-88
2023/01/16 00:59:10;;;;;;;4.35;1.20;;;;;;;3.31;100.00;98778.25;6158469;28;20050;-88
2023/01/16 01:02:12;;;;;;;1.42;0.73;;;;;;;3.24;100.00;98783.81;6160612;28;20049;-89
2023/01/16 01:05:14;;;;;;;3.15;0.75;;;;;;;3.13;100.00;98770.22;6149575;28;20525;-88
2023/01/16 01:08:16;;;;;;;1.80;0.80;;;;;;;3.18;100.00;98768.97;6157586;28;20501;-88
2023/01/16 01:11:18;;;;;;;0.90;0.60;;;;;;;3.28;100.00;98779.31;6158858;28;20452;-88
2023/01/16 01:14:20;;;;;;;3.92;0.80;;;;;;;3.42;100.00;98796.13;6156767;28;20047;-88
2023/01/16 01:17:22;;;;;;;1.13;0.80;;;;;;;3.48;100.00;98795.66;6153431;28;20039;-88
2023/01/16 01:20:24;;;;;;;0.85;0.73;;;;;;;3.48;100.00;98792.28;6149588;28;20047;-88
2023/01/16 01:23:25;;;;;;;2.20;0.80;;;;;;;3.51;100.00;98797.19;6162689;28;20121;-88
2023/01/16 01:26:27;;;;;;;2.60;0.70;;;;;;;3.50;100.00;98798.09;6152670;28;20117;-88
2023/01/16 01:29:29;;;;;;;4.53;0.75;;;;;;;3.45;100.00;98798.44;6163831;28;20559;-88
2023/01/16 01:32:31;;;;;;;2.17;0.70;;;;;;;3.39;100.00;98783.59;6164232;28;20142;-87
2023/01/16 01:35:33;;;;;;;2.28;0.70;;;;;;;3.32;100.00;98784.97;6164113;28;20121;-87
2023/01/16 01:38:35;;;;;;;1.75;0.70;;;;;;;3.27;100.00;98787.09;6162608;28;20054;-87
2023/01/16 01:41:37;;;;;;;1.63;0.73;;;;;;;3.24;100.00;98777.91;6164008;28;20050;-88
2023/01/16 01:44:57;;;;;;;3.13;0.70;;;;;;;3.20;100.00;98771.41;6161837;28;20087;-87
2023/01/16 01:48:13;;;;;;;2.00;0.80;;;;;;;3.13;100.00;98768.50;6163604;28;20121;-87
2023/01/16 01:51:32;;;;;;;1.25;0.70;;;;;;;3.06;100.00;98761.44;6154791;28;20094;-87
2023/01/16 01:54:48;;;;;;;1.60;0.63;;;;;;;2.97;100.00;98755.25;6175923;28;20043;-87
2023/01/16 01:57:56;;;;;;;1.63;0.60;;;;;;;2.92;100.00;98758.16;6162928;28;20050;-87
2023/01/16 02:01:03;;;;;;;3.08;1.38;;;;;;;2.85;100.00;98746.78;6161685;28;20412;-87
2023/01/16 02:04:09;;;;;;;2.25;0.75;;;;;;;2.81;100.00;98742.84;6159932;28;20039;-88
2023/01/16 02:07:15;;;;;;;3.85;0.70;;;;;;;2.78;100.00;98746.44;6162031;28;20066;-87
2023/01/16 02:10:50;;;;;;;2.80;0.70;;;;;;;2.73;100.00;98728.09;6161410;28;20605;-87
2023/01/16 02:13:59;;;;;;;1.77;0.68;;;;;;;2.85;100.00;98725.53;6158541;28;20090;-87
2023/01/16 02:20:42;;;;;;;1.80;0.73;;;;;;;2.78;100.00;98722.63;6161174;28;20501;-87
2023/01/16 02:23:57;;;;;;;1.73;0.80;;;;;;;2.83;100.00;98717.16;6159222;28;20496;-87
2023/01/16 02:27:38;;;;;;;4.10;0.77;;;;;;;2.95;100.00;98721.34;6149172;28;20047;-87
2023/01/16 02:31:15;;;;;;;2.10;0.70;;;;;;;2.97;100.00;98710.06;6160902;28;20050;-87
2023/01/16 02:34:55;;;;;;;1.23;0.70;;;;;;;2.98;100.00;98703.22;6144664;28;20047;-87
2023/01/16 02:38:03;;;;;;;1.48;0.60;;;;;;;3.09;100.00;98698.09;6155356;28;20182;-87
2023/01/16 02:41:43;;;;;;;2.63;0.60;;;;;;;3.27;100.00;98690.72;6162104;28;20140;-87
2023/01/16 02:45:11;;;;;;;2.75;0.57;;;;;;;3.40;100.00;98677.78;6157201;28;20485;-87
2023/01/16 02:48:33;;;;;;;2.10;0.63;;;;;;;3.46;100.00;98669.66;6157846;28;20054;-87
2023/01/16 02:51:43;;;;;;;2.00;0.70;;;;;;;3.54;100.00;98666.47;6159110;28;20031;-87
2023/01/16 02:55:28;;;;;;;1.30;0.60;;;;;;;3.59;100.00;98666.91;6174651;28;20051;-87
2023/01/16 02:58:32;;;;;;;2.78;0.70;;;;;;;3.66;100.00;98655.25;6158985;28;20055;-87
2023/01/16 03:01:35;;;;;;;1.60;0.82;;;;;;;3.67;100.00;98657.69;6158969;28;20070;-85
2023/01/16 03:04:53;;;;;;;2.50;0.82;;;;;;;3.66;100.00;98662.94;6158644;28;20369;-85
2023/01/16 03:08:25;;;;;;;2.95;1.20;;;;;;;3.64;100.00;98659.69;6134673;28;20536;-85
2023/01/16 03:11:29;;;;;;;3.42;1.00;;;;;;;3.62;100.00;98659.78;6152023;28;20183;-85
2023/01/16 03:14:40;;;;;;;4.22;0.82;;;;;;;3.61;100.00;98653.06;6157675;28;20058;-86
2023/01/16 03:17:54;;;;;;;1.42;0.80;;;;;;;3.65;100.00;98659.56;6158844;28;20042;-86
2023/01/16 03:21:36;;;;;;;1.13;0.50;;;;;;;3.64;100.00;98659.69;6157978;28;20090;-86
2023/01/16 03:25:15;;;;;;;2.67;0.73;;;;;;;3.60;100.00;98660.84;6110225;29;20464;-86
2023/01/16 03:28:33;;;;;;;0.75;0.57;;;;;;;3.55;100.00;98645.06;6109424;29;20056;-87
2023/01/16 03:31:56;;;;;;;0.88;0.60;;;;;;;3.45;100.00;98634.75;6094004;29;20047;-86
2023/01/16 03:35:17;;;;;;;0.85;0.50;;;;;;;3.47;100.00;98637.19;6100234;29;20064;-86
2023/01/16 03:38:23;;;;;;;0.98;0.50;;;;;;;3.50;100.00;98624.97;6100452;29;20040;-86
2023/01/16 03:41:27;;;;;;;1.27;0.55;;;;;;;3.51;100.00;98624.06;6101890;29;20558;-85
2023/01/16 03:44:38;;;;;;;2.42;0.70;;;;;;;3.54;100.00;98611.00;6101592;29;20078;-85
2023/01/16 03:47:49;;;;;;;1.95;0.60;;;;;;;3.58;100.00;98603.91;6106040;29;20714;-86
2023/01/16 03:50:56;;;;;;;1.92;0.60;;;;;;;3.59;100.00;98608.88;6104046;29;20099;-86
2023/01/16 03:54:26;;;;;;;1.20;0.85;;;;;;;3.56;100.00;98606.59;6084594;29;20043;-85
2023/01/16 03:57:40;;;;;;;0.75;0.50;;;;;;;3.53;100.00;98604.28;6104900;29;20100;-86
2023/01/16 04:01:20;;;;;;;2.13;1.08;;;;;;;3.38;100.00;98590.16;6118134;28;20074;-86
2023/01/16 04:04:47;;;;;;;3.17;1.17;;;;;;;3.18;100.00;98589.19;6136559;29;20058;-86
2023/01/16 04:07:57;;;;;;;1.63;0.55;;;;;;;3.04;100.00;98577.50;6135878;28;20493;-86
2023/01/16 04:10:59;;;;;;;1.65;0.50;;;;;;;3.00;100.00;98573.56;6108397;29;20066;-86
2023/01/16 04:14:04;;;;;;;0.80;0.80;;;;;;;3.07;100.00;98561.94;6135123;29;20177;-86
2023/01/16 04:17:07;;;;;;;1.13;0.50;;;;;;;3.13;100.00;98568.28;6119130;28;20047;-86
2023/01/16 04:20:09;;;;;;;0.95;0.63;;;;;;;3.21;100.00;98569.31;6103475;28;20057;-86
2023/01/16 04:23:12;;;;;;;0.90;0.63;;;;;;;3.15;100.00;98559.56;6148669;28;20058;-86
2023/01/16 04:26:14;;;;;;;3.78;0.98;;;;;;;3.16;100.00;98556.09;6119546;29;20050;-86
2023/01/16 04:29:16;;;;;;;1.45;0.68;;;;;;;3.19;100.00;98560.16;6136453;28;20063;-86
2023/01/16 04:32:19;;;;;;;2.10;0.70;;;;;;;3.22;100.00;98554.78;6136702;29;20047;-86
2023/01/16 04:35:21;;;;;;;2.28;0.90;;;;;;;3.28;100.00;98556.84;6135680;29;20066;-86
2023/01/16 04:38:23;;;;;;;2.05;0.65;;;;;;;3.32;100.00;98552.28;6138881;28;20513;-86
2023/01/16 04:41:36;;;;;;;1.23;0.60;;;;;;;3.31;100.00;98537.91;6149196;28;20407;-86
2023/01/16 04:44:38;;;;;;;1.20;0.60;;;;;;;3.24;100.00;98528.16;6157105;28;20504;-86
2023/01/16 04:47:40;;;;;;;1.42;0.65;;;;;;;3.05;100.00;98522.91;6148817;28;20039;-86
2023/01/16 04:50:42;;;;;;;3.33;0.70;;;;;;;2.87;100.00;98503.94;6162588;28;20050;-86
2023/01/16 04:53:43;;;;;;;1.52;0.65;;;;;;;2.70;100.00;98507.81;6163392;28;20038;-86
2023/01/16 04:56:46;;;;;;;0.80;0.63;;;;;;;2.55;100.00;98499.63;6168163;28;20054;-86
2023/01/16 04:59:51;;;;;;;0.68;0.40;;;;;;;2.42;100.00;98494.66;6166114;28;20082;-86
2023/01/16 05:02:53;;;;;;;1.77;0.68;;;;;;;2.39;100.00;98499.22;6166093;28;20158;-86
2023/01/16 05:05:54;;;;;;;2.40;0.75;;;;;;;2.34;100.00;98492.72;6164886;28;20123;-86
2023/01/16 05:08:56;;;;;;;1.48;0.80;;;;;;;2.29;100.00;98482.06;6166485;28;20507;-86
2023/01/16 05:11:58;;;;;;;0.90;0.60;;;;;;;2.31;100.00;98480.19;6167697;28;20086;-86
2023/01/16 05:15:00;;;;;;;5.93;0.80;;;;;;;2.28;100.00;98482.16;6167796;28;20055;-86
2023/01/16 05:18:07;;;;;;;1.67;0.57;;;;;;;2.39;100.00;98478.78;6164122;28;20066;-85
2023/01/16 05:21:09;;;;;;;1.73;0.75;;;;;;;2.46;100.00;98482.47;6165217;28;20216;-86
2023/01/16 05:24:11;;;;;;;1.40;0.65;;;;;;;2.56;100.00;98475.72;6155609;28;20055;-86
2023/01/16 05:27:13;;;;;;;2.58;0.80;;;;;;;2.69;100.00;98471.25;6156609;28;20055;-86
2023/01/16 05:30:15;;;;;;;1.75;0.65;;;;;;;2.84;100.00;98469.22;6164525;28;20046;-86
2023/01/16 05:33:17;;;;;;;1.48;0.55;;;;;;;2.95;100.00;98465.78;6157291;28;20105;-86
2023/01/16 05:36:19;;;;;;;1.98;0.70;;;;;;;3.07;100.00;98461.44;6172151;28;20050;-86
2023/01/16 05:39:21;;;;;;;1.05;0.60;;;;;;;3.07;100.00;98446.13;6166044;28;20043;-86
2023/01/16 05:42:24;;;;;;;2.22;0.88;;;;;;;3.05;100.00;98441.13;6167550;28;20046;-86
2023/01/16 05:45:26;;;;;;;2.47;1.00;;;;;;;3.00;100.00;98417.69;6140782;28;20082;-86
2023/01/16 05:48:32;;;;;;;1.63;0.73;;;;;;;2.98;100.00;98422.09;6155748;28;20054;-86
2023/01/16 05:51:33;;;;;;;0.85;0.70;;;;;;;2.95;100.00;98423.16;6149607;28;20050;-86
2023/01/16 05:54:35;;;;;;;1.42;0.68;;;;;;;2.93;100.00;98416.56;6162126;28;20050;-86
2023/01/16 05:57:37;;;;;;;0.60;0.45;;;;;;;3.01;100.00;98411.66;6147429;28;20046;-86
2023/01/16 06:00:39;;;;;;;0.63;0.50;;;;;;;3.04;100.00;98402.91;6146718;28;20046;-86
2023/01/16 06:03:41;;;;;;;2.20;1.05;;;;;;;3.07;100.00;98395.78;6149014;28;20039;-86
2023/01/16 06:06:43;;;;;;;0.65;0.35;;;;;;;3.16;100.00;98387.38;6148244;28;20039;-86
2023/01/16 06:09:44;;;;;;;1.35;0.47;;;;;;;3.23;100.00;98380.81;6146198;28;20125;-86
2023/01/16 06:12:46;;;;;;;0.38;0.38;;;;;;;3.13;100.00;98377.41;6146354;28;20046;-86
2023/01/16 06:15:48;;;;;;;0.40;0.40;;;;;;;3.05;100.00;98378.97;6152404;28;20088;-86
2023/01/16 06:18:50;;;;;;;1.40;0.35;;;;;;;3.01;100.00;98373.31;6156664;28;20500;-85
2023/01/16 06:21:52;;;;;;;0.30;0.30;;;;;;;3.00;100.00;98381.91;6158021;28;20398;-86
2023/01/16 06:24:54;;;;;;;0.50;0.40;;;;;;;3.00;100.00;98369.94;6162703;28;20074;-86
2023/01/16 06:27:56;;;;;;;0.73;0.32;;;;;;;3.08;100.00;98369.31;6165438;28;20038;-86
2023/01/16 06:30:57;;;;;;;0.73;0.50;;;;;;;3.22;100.00;98363.84;6163656;28;20058;-86
2023/01/16 06:33:59;;;;;;;0.65;0.30;;;;;;;3.21;100.00;98354.56;6158072;28;20445;-86
2023/01/16 06:37:00;;;;;;;1.75;0.57;;;;;;;3.19;100.00;98350.53;6159654;28;20504;-86
2023/01/16 06:40:03;;;;;;;0.75;0.40;;;;;;;3.21;100.00;98346.09;6141443;28;20572;-86
2023/01/16 06:43:04;;;;;;;1.30;0.50;;;;;;;3.20;100.00;98332.47;6159003;28;20636;-86
2023/01/16 06:46:06;;;;;;;2.67;0.50;;;;;;;3.09;100.00;98331.78;6161700;28;20042;-86
2023/01/16 06:49:10;;;;;;;1.40;0.60;;;;;;;2.89;100.00;98324.03;6165359;28;20417;-86
2023/01/16 06:52:12;;;;;;;2.33;0.55;;;;;;;2.71;100.00;98315.34;6165656;28;20051;-86
2023/01/16 06:55:14;;;;;;;0.80;0.73;;;;;;;2.59;100.00;98317.13;6164686;28;20117;-86
2023/01/16 06:58:18;;;;;;;0.60;0.50;;;;;;;2.55;100.00;98306.34;6165010;28;20165;-86
2023/01/16 07:01:21;;;;;;;0.80;0.60;;;;;;;2.45;100.00;98309.78;6157378;28;20417;-86
2023/01/16 07:04:23;;;;;;;1.90;0.60;;;;;;;2.39;100.00;98310.28;6161673;28;20057;-86
2023/01/16 07:07:25;;;;;;;1.08;0.70;;;;;;;2.51;100.00;98311.81;6164962;28;20477;-86
2023/01/16 07:10:27;;;;;;;3.28;1.30;;;;;;;2.66;100.00;98310.59;6163910;28;20047;-86
2023/01/16 07:13:29;;;;;;;3.97;2.22;;;;;;;2.82;100.00;98312.69;6165146;28;20042;-86
2023/01/16 07:23:32;;;;;;;2.60;1.10;;;;;;;2.87;100.00;98285.00;6157691;28;20318;-86
2023/01/16 07:26:37;;;;;;;1.48;1.00;;;;;;;2.92;100.00;98279.53;6155407;28;20039;-86
2023/01/16 07:29:39;;;;;;;2.40;1.38;;;;;;;2.92;100.00;98272.66;6163725;28;20039;-86
2023/01/16 07:32:42;;;;;;;2.47;1.10;;;;;;;3.08;100.00;98266.25;6159326;28;20493;-86
2023/01/16 07:35:45;;;;;;;2.53;1.13;;;;;;;3.05;100.00;98246.88;6159888;28;20050;-86
2023/01/16 07:38:47;;;;;;;2.17;1.10;;;;;;;3.04;100.00;98242.72;6162738;28;20043;-86
2023/01/16 07:41:50;;;;;;;2.42;1.00;;;;;;;2.91;100.00;98242.16;6162410;28;20087;-86
2023/01/16 07:44:58;;;;;;;4.88;1.10;;;;;;;2.92;100.00;98244.56;6162800;28;20039;-86
2023/01/16 07:48:00;;;;;;;1.73;1.20;;;;;;;2.93;100.00;98235.13;6163167;28;20442;-86
2023/01/16 07:51:03;;;;;;;2.75;1.10;;;;;;;2.96;100.00;98224.69;6162543;28;20082;-86
2023/01/16 07:54:04;;;;;;;3.03;1.38;;;;;;;2.90;100.00;98222.63;6166387;28;20390;-86
2023/01/16 07:57:06;;;;;;;1.35;1.10;;;;;;;2.99;100.00;98219.31;6164252;28;20049;-86
2023/01/16 08:00:10;;;;;;;2.95;1.10;;;;;;;3.11;100.00;98217.47;6162644;28;20592;-86
2023/01/16 08:03:18;;;;;;;3.13;1.38;;;;;;;3.28;100.00;98216.00;6161683;28;20053;-86
2023/01/16 08:06:19;;;;;;;1.83;1.30;;;;;;;3.39;100.00;98213.31;6157981;28;20159;-86
2023/01/16 08:09:21;;;;;;;2.17;1.40;;;;;;;3.44;100.00;98206.06;6158066;28;20042;-86
2023/01/16 08:12:23;;;;;;;2.50;1.13;;;;;;;3.50;100.00;98202.97;6162007;28;20117;-86
2023/01/16 08:15:24;;;;;;;3.22;1.10;;;;;;;3.65;100.00;98186.28;6161561;28;20590;-86
2023/01/16 08:18:26;;;;;;;1.60;0.98;;;;;;;3.70;100.00;98179.94;6160925;28;20432;-85
2023/01/16 08:21:28;;;;;;;3.35;1.17;;;;;;;3.78;100.00;98173.22;6163064;28;20089;-85
2023/01/16 08:24:30;;;;;;;3.70;1.40;;;;;;;3.81;100.00;98160.16;6161036;28;20051;-85
2023/01/16 08:27:32;;;;;;;3.47;1.10;;;;;;;3.82;100.00;98153.28;6160210;28;20425;-85
2023/01/16 08:30:35;;;;;;;1.58;1.08;;;;;;;3.86;100.00;98149.50;6162662;28;20049;-86
2023/01/16 08:33:37;;;;;;;1.20;0.93;;;;;;;3.93;100.00;98142.09;6162830;28;20051;-85
2023/01/16 08:36:39;;;;;;;1.15;0.70;;;;;;;4.05;100.00;98139.22;6156239;28;20050;-85
2023/01/16 08:39:40;;;;;;;2.42;0.90;;;;;;;4.17;100.00;98127.06;6147014;28;20042;-85
2023/01/16 08:52:45;;;;;;;3.03;1.00;;;;;;;4.38;100.00;98096.13;6153191;28;19933;-86
2023/01/16 08:55:47;;;;;;;2.83;1.30;;;;;;;4.44;100.00;98081.94;6173943;28;20124;-85
2023/01/16 08:58:49;;;;;;;2.25;0.80;;;;;;;4.40;100.00;98078.06;6145845;28;20043;-86
2023/01/16 09:01:51;;;;;;;2.92;0.80;;;;;;;4.43;100.00;98077.78;6162256;28;20460;-86
2023/01/16 09:04:54;;;;;;;1.92;0.90;;;;;;;4.51;100.00;98070.97;6163116;28;20074;-86
2023/01/16 09:07:56;;;;;;;4.43;0.82;;;;;;;4.60;100.00;98064.19;6162113;28;20031;-86
2023/01/16 09:14:19;;;;;;;1.53;0.80;;;;;;;4.63;100.00;98055.41;6153788;28;20047;-86
2023/01/16 09:17:26;;;;;;;2.67;0.82;;;;;;;4.56;100.00;98047.50;6151317;28;20054;-85
2023/01/16 09:20:28;;;;;;;1.30;0.80;;;;;;;4.56;100.00;98050.06;6148046;28;20034;-86
2023/01/16 09:23:30;;;;;;;4.25;1.02;;;;;;;4.61;100.00;98050.41;6163509;28;20081;-86
2023/01/16 09:26:32;;;;;;;1.27;0.75;;;;;;;4.57;100.00;98036.31;6165603;28;20529;-86
2023/01/16 09:29:34;;;;;;;2.28;0.77;;;;;;;4.60;100.00;98030.88;6160648;28;20057;-86
2023/01/16 09:32:35;;;;;;;3.85;0.80;;;;;;;4.65;100.00;98017.66;6161640;28;21732;-86
2023/01/16 09:35:37;;;;;;;3.20;0.90;;;;;;;4.71;100.00;98014.50;6159328;28;20039;-86
2023/01/16 09:38:39;;;;;;;2.88;0.80;;;;;;;4.84;100.00;98016.69;6159292;28;20468;-86
2023/01/16 09:45:32;;;;;;;1.92;0.77;;;;;;;4.90;100.00;97980.22;6168403;28;20646;-86
2023/01/16 09:48:45;;;;;;;3.58;1.77;;;;;;;5.05;100.00;97968.47;6184644;28;20050;-86
2023/01/16 09:59:23;;;;;;;4.53;2.15;;;;;;;5.25;100.00;97956.28;6173808;28;20170;-86
2023/01/16 10:02:29;;;;;;;1.98;0.70;;;;;;;5.24;100.00;97939.28;6181364;28;20568;-87
2023/01/16 10:05:42;;;;;;;2.35;0.93;;;;;;;5.24;100.00;97928.22;6180751;28;20370;-86
2023/01/16 10:09:03;;;;;;;2.95;0.85;;;;;;;5.30;100.00;97925.84;6184367;28;20857;-87
2023/01/16 10:12:10;;;;;;;4.28;0.93;;;;;;;5.40;100.00;97910.34;6180361;28;20161;-87
2023/01/16 10:15:57;;;;;;;3.95;0.93;;;;;;;5.47;100.00;97902.84;6185361;28;20573;-87
2023/01/16 10:19:18;;;;;;;1.55;1.27;;;;;;;5.53;100.00;97895.31;6164253;28;20047;-87
2023/01/16 10:22:27;;;;;;;;;;;;;;;5.63;100.00;97886.72;6174655;28;20051;-87
2023/01/16 10:25:32;;;;;;;2.88;0.88;;;;;;;5.69;100.00;97874.06;6165293;28;19922;-87
2023/01/16 10:28:57;;;;;;;1.77;0.90;;;;;;;5.79;100.00;97874.75;6164745;28;20050;-87
2023/01/16 10:32:24;;;;;;;1.60;0.80;;;;;;;5.95;100.00;97871.44;6143942;28;20494;-87
2023/01/16 10:35:32;;;;;;;0.85;0.73;;;;;;;6.13;100.00;97855.88;6169140;28;20089;-87
2023/01/16 10:38:55;;;;;;;2.15;0.90;;;;;;;6.26;100.00;97858.00;6185626;28;20046;-87
2023/01/16 10:52:14;;;;;;;1.58;1.42;;;;;;;5.96;100.00;97814.00;6178442;28;20054;-87
2023/01/16 10:55:16;;;;;;;2.28;0.95;;;;;;;5.87;100.00;97809.00;6182338;28;20057;-87
2023/01/16 10:58:36;;;;;;;0.98;0.60;;;;;;;5.78;100.00;97783.28;6184974;28;20157;-87
2023/01/16 11:01:42;;;;;;;2.33;0.93;;;;;;;5.83;100.00;97777.69;6173956;28;20643;-87
2023/01/16 11:04:44;;;;;;;1.00;0.60;;;;;;;5.87;100.00;97773.84;6178011;28;20416;-87
2023/01/16 11:07:46;;;;;;;1.42;0.77;;;;;;;5.83;100.00;97768.22;6178593;28;20050;-87
2023/01/16 11:10:50;;;;;;;2.13;0.65;;;;;;;5.83;100.00;97750.25;6161625;28;20133;-87
2023/01/16 11:21:18;;;;;;;1.48;0.60;;;;;;;6.01;100.00;97721.06;6152044;28;20054;-87
2023/01/16 11:24:31;;;;;;;2.20;0.80;;;;;;;6.15;100.00;97709.34;6152268;28;20054;-87
2023/01/16 11:27:36;;;;;;;1.75;0.60;;;;;;;6.21;100.00;97704.38;6153074;28;20054;-87
2023/01/16 11:30:45;;;;;;;1.83;0.80;;;;;;;6.20;100.00;97689.91;6152587;28;20043;-88
2023/01/16 11:33:54;;;;;;;2.53;0.68;;;;;;;6.26;100.00;97683.34;6150070;28;20046;-88
2023/01/16 11:36:58;;;;;;;3.30;0.75;;;;;;;6.29;100.00;97684.78;6163782;28;20057;-88
2023/01/16 11:40:04;;;;;;;2.05;0.68;;;;;;;6.27;100.00;97671.28;6162851;28;20038;-87
2023/01/16 11:46:37;;;;;;;0.93;0.60;;;;;;;6.33;100.00;97665.50;6156701;28;20055;-87
2023/01/16 11:49:45;;;;;;;3.70;0.68;;;;;;;6.35;100.00;97653.28;6161165;28;20400;-87
2023/01/16 11:52:47;;;;;;;0.70;0.50;;;;;;;6.45;100.00;97646.19;6155656;28;20101;-87
2023/01/16 11:56:17;;;;;;;3.13;0.68;;;;;;;6.52;100.00;97630.91;6162936;28;20038;-88
2023/01/16 11:59:39;;;;;;;1.05;0.57;;;;;;;6.66;100.00;97625.88;6156087;28;20046;-87
2023/01/16 12:03:00;;;;;;;1.52;0.60;;;;;;;6.79;100.00;97620.19;6162453;28;20039;-88
2023/01/16 12:06:23;;;;;;;3.63;0.70;;;;;;;6.92;100.00;97621.41;6162600;28;20051;-88
2023/01/16 12:09:48;;;;;;;1.80;0.70;;;;;;;6.91;100.00;97610.31;6158006;28;20121;-88
2023/01/16 12:16:31;;;;;;;1.85;0.70;;;;;;;6.98;100.00;97592.41;6153853;28;20093;-88
2023/01/16 12:19:51;;;;;;;2.35;0.90;;;;;;;7.14;100.00;97586.38;6163575;28;20047;-88
2023/01/16 12:23:25;;;;;;;2.20;1.00;;;;;;;7.26;100.00;97572.94;6141538;28;20121;-88
2023/01/16 12:26:37;;;;;;;2.58;0.70;;;;;;;7.31;100.00;97565.50;6145101;28;20385;-88
2023/01/16 12:30:03;;;;;;;3.30;0.73;;;;;;;7.31;100.00;97554.41;6157218;28;20096;-88
2023/01/16 12:33:22;;;;;;;1.20;0.80;;;;;;;7.24;100.00;97530.34;6163491;28;20042;-88
2023/01/16 12:36:57;;;;;;;3.95;0.98;;;;;;;7.21;100.00;97523.00;6160034;28;20051;-88
2023/01/16 12:40:18;;;;;;;1.70;0.70;;;;;;;7.12;100.00;97511.94;6117856;28;20062;-88
2023/01/16 12:43:39;;;;;;;2.83;0.90;;;;;;;7.06;100.00;97504.94;6135268;28;20063;-88
2023/01/16 12:46:59;;;;;;;;;;;;;;;7.14;100.00;97507.44;6121422;28;20142;-88
2023/01/16 12:50:30;;;;;;;1.15;0.52;;;;;;;7.20;100.00;97506.72;6135170;28;19990;-88
2023/01/16 12:54:05;;;;;;;3.03;0.55;;;;;;;7.20;100.00;97499.00;6136428;28;20058;-88
2023/01/16 12:57:07;;;;;;;2.13;0.60;;;;;;;7.23;100.00;97487.56;6129932;28;20083;-88
2023/01/16 13:00:20;;;;;;;1.25;0.65;;;;;;;7.32;100.00;97479.59;6135683;28;20039;-88
2023/01/16 13:03:34;;;;;;;1.90;0.60;;;;;;;7.44;100.00;97461.97;6134375;28;20063;-88
2023/01/16 13:06:39;;;;;;;1.90;0.70;;;;;;;7.43;100.00;97457.00;6134861;28;20138;-88
2023/01/16 13:13:20;;;;;;;2.08;0.70;;;;;;;7.47;100.00;97453.09;6122531;28;20537;-88
2023/01/16 13:13:26;;;;;;;3.00;0.65;;;;;;;7.40;100.00;97444.47;6133097;28;20515;-88
2023/01/16 13:16:41;;;;;;;0.60;0.55;;;;;;;7.38;100.00;97436.97;6166514;28;20085;-82
2023/01/16 13:19:46;;;;;;;0.77;0.63;;;;;;;7.30;100.00;97434.44;6155128;28;20174;-88
2023/01/16 13:22:59;;;;;;;3.53;0.90;;;;;;;7.04;100.00;97427.97;6156306;28;20508;-89
2023/01/16 13:26:06;;;;;;;1.73;0.93;;;;;;;6.93;100.00;97427.56;6180714;28;20062;-89
2023/01/16 13:29:23;;;;;;;2.97;0.68;;;;;;;6.84;100.00;97424.28;6163512;28;20035;-89
2023/01/16 13:32:48;;;;;;;0.80;0.50;;;;;;;6.71;100.00;97422.31;6159957;28;20047;-89
2023/01/16 13:36:28;;;;;;;1.50;0.82;;;;;;;6.57;100.00;97420.50;6157209;28;20042;-89
2023/01/16 13:40:07;;;;;;;1.42;0.80;;;;;;;6.46;100.00;97419.13;6139122;28;20833;-90
2023/01/16 13:46:40;;;;;;;2.28;0.80;;;;;;;6.24;100.00;97405.31;6137495;28;20352;-89
2023/01/16 13:49:49;;;;;;;3.70;0.68;;;;;;;6.10;100.00;97408.59;6137313;28;20153;-88
2023/01/16 13:53:00;;;;;;;4.38;0.95;;;;;;;6.05;100.00;97416.81;6138438;28;20490;-89
2023/01/16 13:56:10;;;;;;;1.38;0.50;;;;;;;5.89;100.00;97404.84;6138047;28;20254;-89
2023/01/16 13:59:44;;;;;;;0.60;0.47;;;;;;;5.66;100.00;97403.97;6136983;28;20516;-88
2023/01/16 14:03:02;;;;;;;1.35;0.57;;;;;;;5.53;100.00;97392.47;6137648;28;20063;-88
2023/01/16 14:06:10;;;;;;;0.80;0.47;;;;;;;5.47;100.00;97405.19;6136388;28;20055;-88
2023/01/16 14:09:17;;;;;;;2.55;0.65;;;;;;;5.36;100.00;97391.72;6117054;29;20051;-89
2023/01/16 14:12:20;;;;;;;1.15;0.40;;;;;;;5.30;100.00;97389.84;6136203;28;20126;-88
2023/01/16 14:19:13;;;;;;;0.70;0.40;;;;;;;5.17;100.00;97387.81;6149960;28;20051;-89
2023/01/16 14:25:23;;;;;;;2.20;0.65;;;;;;;5.27;100.00;97382.50;6162914;28;20058;-88
2023/01/16 14:28:27;;;;;;;0.75;0.50;;;;;;;5.32;100.00;97376.88;6162421;28;20054;-88
2023/01/16 14:31:40;;;;;;;1.00;0.60;;;;;;;5.30;100.00;97379.59;6166806;28;20053;-88
2023/01/16 14:34:52;;;;;;;1.38;0.50;;;;;;;5.27;100.00;97371.44;6168421;28;20492;-88
2023/01/16 14:38:03;;;;;;;0.70;0.50;;;;;;;5.26;100.00;97365.50;6175758;28;20177;-88
2023/01/16 14:55:13;;;;;;;0.57;0.47;;;;;;;5.35;100.00;97338.84;6155388;28;20050;-88
2023/01/16 14:58:54;;;;;;;0.60;0.50;;;;;;;5.38;100.00;97323.13;6162546;28;20592;-88
2023/01/16 15:02:23;;;;;;;0.55;0.47;;;;;;;5.27;100.00;97322.72;6149189;28;20043;-88
2023/01/16 15:05:55;;;;;;;0.40;0.40;;;;;;;5.16;100.00;97313.59;6154850;28;20042;-88
2023/01/16 15:08:59;;;;;;;1.70;0.63;;;;;;;5.09;100.00;97290.41;6141819;28;20050;-88
2023/01/16 15:12:09;;;;;;;2.55;0.70;;;;;;;5.14;100.00;97300.16;6146480;28;20034;-88
2023/01/16 15:15:21;;;;;;;1.58;0.70;;;;;;;5.10;100.00;97283.53;6139994;28;20784;-88
2023/01/16 15:22:01;;;;;;;0.88;0.68;;;;;;;4.94;100.00;97244.19;6144587;28;20050;-88
2023/01/16 15:25:16;;;;;;;1.58;0.70;;;;;;;4.81;100.00;97256.69;6150318;28;20050;-88
2023/01/16 15:28:41;;;;;;;1.10;0.60;;;;;;;4.65;100.00;97242.19;6155843;28;20046;-88
2023/01/16 15:31:56;;;;;;;0.75;0.60;;;;;;;4.40;100.00;97236.34;6152152;28;20441;-88
2023/01/16 15:35:16;;;;;;;1.23;0.70;;;;;;;4.16;100.00;97228.69;6156599;28;20058;-88
2023/01/16 15:38:19;;;;;;;0.85;0.60;;;;;;;3.90;100.00;97227.13;6142886;28;20178;-88
2023/01/16 15:48:48;;;;;;;0.57;0.40;;;;;;;3.53;100.00;97240.34;6143585;28;20378;-88
2023/01/16 15:52:04;;;;;;;;;;;;;;;3.49;100.00;97236.53;6148376;28;20195;-88
2023/01/16 15:55:26;;;;;;;0.60;0.60;;;;;;;3.56;100.00;97230.63;6142995;28;19930;-88
2023/01/16 15:58:28;;;;;;;3.40;0.68;;;;;;;3.45;100.00;97223.25;6138307;28;20028;-88
2023/01/16 16:01:32;;;;;;;0.75;0.60;;;;;;;3.38;100.00;97235.03;6136184;28;20039;-88
2023/01/16 16:04:35;;;;;;;0.73;0.57;;;;;;;3.31;100.00;97221.31;6128688;28;20047;-88
2023/01/16 16:07:37;;;;;;;0.65;0.50;;;;;;;3.26;100.00;97215.88;6138939;28;20516;-88
2023/01/16 16:21:05;;;;;;;0.80;0.60;;;;;;;3.13;100.00;97198.41;6095481;29;20536;-88
2023/01/16 16:24:11;;;;;;;0.70;0.60;;;;;;;3.07;100.00;97202.41;6112977;29;20055;-88
2023/01/16 16:27:17;;;;;;;1.05;0.60;;;;;;;3.08;100.00;97195.53;6105829;29;20059;-88
2023/01/16 16:30:28;;;;;;;1.02;0.68;;;;;;;3.06;100.00;97182.94;6081236;29;20450;-88
2023/01/16 16:33:35;;;;;;;1.10;0.60;;;;;;;3.04;100.00;97177.16;6096141;29;20044;-88
2023/01/16 16:36:45;;;;;;;0.88;0.50;;;;;;;3.00;100.00;97184.34;6100631;29;20054;-88